ADDS METAR Data INFO
IDs: Format: Raw Decoded Include TAF

Data at: 1151 UTC 21 Jun 2018

KMAE 211053Z AUTO 31006KT 10SM CLR 16/08 A2992 RMK AO2 SLP130 T01560083
KMAE 210953Z AUTO 30004KT 10SM CLR 16/08 A2992 RMK AO2 SLP130 T01610083
KMAE 210853Z AUTO 32006KT 10SM CLR 18/08 A2992 RMK AO2 SLP128 T01780083 51004
KMAE 210753Z AUTO 30005KT 10SM CLR 19/09 A2992 RMK AO2 SLP129 T01890089 403610156
KMAE 210653Z AUTO 30008KT 10SM CLR 21/08 A2992 RMK AO2 SLP127 T02110083
KMAE 210553Z AUTO 30008KT 10SM CLR 23/09 A2991 RMK AO2 SLP125 T02280089 10356 20228 51014
KMAE 210453Z AUTO 30007KT 10SM CLR 24/11 A2990 RMK AO2 SLP121 T02390106
KMAE 210353Z AUTO 32010KT 10SM CLR 28/10 A2988 RMK AO2 SLP115 T02780100
KMAE 210253Z AUTO 31007KT 10SM CLR 31/13 A2987 RMK AO2 SLP111 T03060128 55000
KMAE 210153Z AUTO 31009KT 10SM CLR 33/12 A2986 RMK AO2 SLP108 T03330122
KMAE 210053Z AUTO 30011KT 10SM CLR 34/11 A2986 RMK AO2 SLP109 T03440111
KMAE 202353Z AUTO 30012KT 10SM CLR 35/10 A2987 RMK AO2 SLP111 T03500100 10361 20289 58014
KMAE 202253Z AUTO 31009KT 10SM CLR 36/11 A2988 RMK AO2 SLP116 T03560106
KMAE 202153Z AUTO 31010KT 10SM CLR 36/12 A2990 RMK AO2 SLP121 T03560122
KMAE 202053Z AUTO 29008KT 260V320 10SM CLR 34/11 A2991 RMK AO2 SLP125 T03440106 58013
KMAE 201953Z AUTO 29006KT 10SM CLR 33/12 A2992 RMK AO2 SLP130 T03280117
KMAE 201853Z AUTO 30008KT 10SM CLR 31/12 A2994 RMK AO2 SLP136 T03060122
KMAE 201753Z AUTO 30008KT 10SM CLR 29/12 A2995 RMK AO2 SLP138 T02940122 10294 20156 50001
KMAE 201653Z AUTO 30009KT 10SM CLR 28/11 A2995 RMK AO2 SLP140 T02780106
KMAE 201553Z AUTO 30008KT 10SM CLR 26/11 A2996 RMK AO2 SLP141 T02560111
KMAE 201453Z AUTO 32005KT 10SM CLR 22/12 A2994 RMK AO2 SLP138 T02220122 53008
KMAE 201353Z AUTO 33005KT 10SM CLR 18/13 A2994 RMK AO2 SLP134 T01830128
KMAE 201253Z AUTO 32005KT 10SM CLR 16/13 A2993 RMK AO2 SLP132 T01610128
KMAE 201153Z AUTO 31004KT 10SM CLR 17/13 A2992 RMK AO2 SLP130 T01670133 10250 20167 53002
KMAE 201053Z AUTO 28005KT 10SM CLR 17/14 A2992 RMK AO2 SLP128 T01720139
KMAE 200953Z AUTO 30004KT 10SM CLR 18/14 A2991 RMK AO2 SLP126 T01780144
KMAE 200853Z AUTO 29005KT 10SM CLR 18/14 A2992 RMK AO2 SLP128 T01830144 58001
KMAE 200753Z AUTO 28006KT 10SM CLR 19/15 A2993 RMK AO2 SLP132 T01940150 403440144
KMAE 200653Z AUTO 31006KT 10SM CLR 24/14 A2993 RMK AO2 SLP131 T02390139
KMAE 200553Z AUTO 32008KT 10SM CLR 25/14 A2992 RMK AO2 SLP129 T02500144 10344 20233 53008
KMAE 200453Z AUTO 32005KT 10SM CLR 24/15 A2992 RMK AO2 SLP128 T02440150
KMAE 200353Z AUTO 30007KT 10SM CLR 27/15 A2990 RMK AO2 SLP121 T02670150
KMAE 200253Z AUTO 30006KT 10SM CLR 28/14 A2990 RMK AO2 SLP121 T02830139 55003
KMAE 200153Z AUTO 30007KT 10SM CLR 32/13 A2989 RMK AO2 SLP120 T03220133
KMAE 200053Z AUTO 31010KT 10SM CLR 34/12 A2990 RMK AO2 SLP121 T03390122
KMAE 192353Z AUTO 30011KT 10SM CLR 34/12 A2990 RMK AO2 SLP124 T03390117 10344 20278 56014